sensor_id;sensor_type;location;lat;lon;timestamp;temperature;humidity
18898;DHT22;9581;49.484;8.556;2023-10-31T00:02:09;13.10;99.90
18898;DHT22;9581;49.484;8.556;2023-10-31T00:04:35;13.00;99.90
18898;DHT22;9581;49.484;8.556;2023-10-31T00:07:02;13.00;99.90
18898;DHT22;9581;49.484;8.556;2023-10-31T00:09:29;13.00;99.90
18898;DHT22;9581;49.484;8.556;2023-10-31T00:11:56;13.00;99.90
18898;DHT22;9581;49.484;8.556;2023-10-31T00:14:23;13.00;99.90
18898;DHT22;9581;49.484;8.556;2023-10-31T00:16:50;13.00;99.90
18898;DHT22;9581;49.484;8.556;2023-10-31T00:19:18;12.90;99.90
18898;DHT22;9581;49.484;8.556;2023-10-31T00:21:45;12.80;99.90
18898;DHT22;9581;49.484;8.556;2023-10-31T00:24:12;12.80;99.90
18898;DHT22;9581;49.484;8.556;2023-10-31T00:26:39;12.80;99.90
18898;DHT22;9581;49.484;8.556;2023-10-31T00:29:05;12.80;99.90
18898;DHT22;9581;49.484;8.556;2023-10-31T00:31:32;12.70;99.90
18898;DHT22;9581;49.484;8.556;2023-10-31T00:34:00;12.70;99.90
18898;DHT22;9581;49.484;8.556;2023-10-31T00:36:28;12.80;99.90
18898;DHT22;9581;49.484;8.556;2023-10-31T00:38:55;12.80;99.90
18898;DHT22;9581;49.484;8.556;2023-10-31T00:41:21;12.70;99.90
18898;DHT22;9581;49.484;8.556;2023-10-31T00:43:48;12.80;99.90
18898;DHT22;9581;49.484;8.556;2023-10-31T00:46:15;12.80;99.90
18898;DHT22;9581;49.484;8.556;2023-10-31T00:48:42;12.70;99.90
18898;DHT22;9581;49.484;8.556;2023-10-31T00:51:08;12.60;99.90
18898;DHT22;9581;49.484;8.556;2023-10-31T00:53:37;12.60;99.90
18898;DHT22;9581;49.484;8.556;2023-10-31T00:56:04;12.60;99.90
18898;DHT22;9581;49.484;8.556;2023-10-31T00:58:31;12.60;99.90
18898;DHT22;9581;49.484;8.556;2023-10-31T01:00:58;12.60;99.90
18898;DHT22;9581;49.484;8.556;2023-10-31T01:03:25;12.60;99.90
18898;DHT22;9581;49.484;8.556;2023-10-31T01:05:52;12.60;99.90
18898;DHT22;9581;49.484;8.556;2023-10-31T01:08:18;12.60;99.90
18898;DHT22;9581;49.484;8.556;2023-10-31T01:10:47;12.40;99.90
18898;DHT22;9581;49.484;8.556;2023-10-31T01:13:13;12.50;99.90
18898;DHT22;9581;49.484;8.556;2023-10-31T01:15:40;12.40;99.90
18898;DHT22;9581;49.484;8.556;2023-10-31T01:18:07;12.30;99.90
18898;DHT22;9581;49.484;8.556;2023-10-31T01:20:34;12.20;99.90
18898;DHT22;9581;49.484;8.556;2023-10-31T01:23:00;12.00;99.90
18898;DHT22;9581;49.484;8.556;2023-10-31T01:25:27;12.00;99.90
18898;DHT22;9581;49.484;8.556;2023-10-31T01:27:55;12.20;99.90
18898;DHT22;9581;49.484;8.556;2023-10-31T01:30:22;12.00;99.90
18898;DHT22;9581;49.484;8.556;2023-10-31T01:32:49;12.10;99.90
18898;DHT22;9581;49.484;8.556;2023-10-31T01:35:16;11.90;99.90
18898;DHT22;9581;49.484;8.556;2023-10-31T01:37:42;11.80;99.90
18898;DHT22;9581;49.484;8.556;2023-10-31T01:40:12;11.80;99.90
18898;DHT22;9581;49.484;8.556;2023-10-31T01:42:39;11.70;99.90
18898;DHT22;9581;49.484;8.556;2023-10-31T01:45:08;11.70;99.90
18898;DHT22;9581;49.484;8.556;2023-10-31T01:47:35;11.70;99.90
18898;DHT22;9581;49.484;8.556;2023-10-31T01:50:03;11.70;99.90
18898;DHT22;9581;49.484;8.556;2023-10-31T01:52:30;11.80;99.90
18898;DHT22;9581;49.484;8.556;2023-10-31T01:54:58;11.90;99.90
18898;DHT22;9581;49.484;8.556;2023-10-31T01:57:25;12.00;99.90
18898;DHT22;9581;49.484;8.556;2023-10-31T01:59:52;11.90;99.90
18898;DHT22;9581;49.484;8.556;2023-10-31T02:02:22;11.70;99.90
18898;DHT22;9581;49.484;8.556;2023-10-31T02:04:49;11.70;99.90
18898;DHT22;9581;49.484;8.556;2023-10-31T02:07:16;11.80;99.90
18898;DHT22;9581;49.484;8.556;2023-10-31T02:09:43;11.80;99.90
18898;DHT22;9581;49.484;8.556;2023-10-31T02:12:10;11.70;99.90
18898;DHT22;9581;49.484;8.556;2023-10-31T02:14:36;11.80;99.90
18898;DHT22;9581;49.484;8.556;2023-10-31T02:17:03;11.70;99.90
18898;DHT22;9581;49.484;8.556;2023-10-31T02:19:31;11.40;99.90
18898;DHT22;9581;49.484;8.556;2023-10-31T02:21:59;11.30;99.90
18898;DHT22;9581;49.484;8.556;2023-10-31T02:24:26;11.30;99.90
18898;DHT22;9581;49.484;8.556;2023-10-31T02:26:53;11.20;99.90
18898;DHT22;9581;49.484;8.556;2023-10-31T02:29:19;11.10;99.90
18898;DHT22;9581;49.484;8.556;2023-10-31T02:31:47;11.20;99.90
18898;DHT22;9581;49.484;8.556;2023-10-31T02:34:14;11.10;99.90
18898;DHT22;9581;49.484;8.556;2023-10-31T02:36:40;11.10;99.90
18898;DHT22;9581;49.484;8.556;2023-10-31T02:39:09;11.10;99.90
18898;DHT22;9581;49.484;8.556;2023-10-31T02:41:35;11.00;99.90
18898;DHT22;9581;49.484;8.556;2023-10-31T02:44:02;11.00;99.90
18898;DHT22;9581;49.484;8.556;2023-10-31T02:46:29;11.00;99.90
18898;DHT22;9581;49.484;8.556;2023-10-31T02:48:56;11.10;99.90
18898;DHT22;9581;49.484;8.556;2023-10-31T02:51:23;11.20;99.90
18898;DHT22;9581;49.484;8.556;2023-10-31T02:53:49;11.20;99.90
18898;DHT22;9581;49.484;8.556;2023-10-31T02:56:19;11.20;99.90
18898;DHT22;9581;49.484;8.556;2023-10-31T02:58:45;11.30;99.90
18898;DHT22;9581;49.484;8.556;2023-10-31T03:01:12;11.40;99.90
18898;DHT22;9581;49.484;8.556;2023-10-31T03:03:39;11.50;99.90
18898;DHT22;9581;49.484;8.556;2023-10-31T03:06:06;11.60;99.90
18898;DHT22;9581;49.484;8.556;2023-10-31T03:08:33;11.70;99.90
18898;DHT22;9581;49.484;8.556;2023-10-31T03:11:00;11.70;99.90
18898;DHT22;9581;49.484;8.556;2023-10-31T03:13:28;11.60;99.90
18898;DHT22;9581;49.484;8.556;2023-10-31T03:15:54;11.60;99.90
18898;DHT22;9581;49.484;8.556;2023-10-31T03:18:21;11.50;99.90
18898;DHT22;9581;49.484;8.556;2023-10-31T03:20:48;11.50;99.90
18898;DHT22;9581;49.484;8.556;2023-10-31T03:23:15;11.50;99.90
18898;DHT22;9581;49.484;8.556;2023-10-31T03:25:42;11.50;99.90
18898;DHT22;9581;49.484;8.556;2023-10-31T03:28:18;11.50;99.90
18898;DHT22;9581;49.484;8.556;2023-10-31T03:30:47;11.50;99.90
18898;DHT22;9581;49.484;8.556;2023-10-31T03:33:14;11.50;99.90
18898;DHT22;9581;49.484;8.556;2023-10-31T03:35:41;11.60;99.90
18898;DHT22;9581;49.484;8.556;2023-10-31T03:38:08;11.60;99.90
18898;DHT22;9581;49.484;8.556;2023-10-31T03:40:35;11.60;99.90
18898;DHT22;9581;49.484;8.556;2023-10-31T03:43:01;11.70;99.90
18898;DHT22;9581;49.484;8.556;2023-10-31T03:45:29;11.80;99.90
18898;DHT22;9581;49.484;8.556;2023-10-31T03:47:57;11.80;99.90
18898;DHT22;9581;49.484;8.556;2023-10-31T03:50:24;11.80;99.90
18898;DHT22;9581;49.484;8.556;2023-10-31T03:52:50;11.60;99.90
18898;DHT22;9581;49.484;8.556;2023-10-31T03:55:18;11.70;99.90
18898;DHT22;9581;49.484;8.556;2023-10-31T03:57:45;11.70;99.90
18898;DHT22;9581;49.484;8.556;2023-10-31T04:00:13;11.60;99.90
18898;DHT22;9581;49.484;8.556;2023-10-31T04:02:40;11.70;99.90
18898;DHT22;9581;49.484;8.556;2023-10-31T04:05:08;11.80;99.90
18898;DHT22;9581;49.484;8.556;2023-10-31T04:07:35;11.80;99.90
18898;DHT22;9581;49.484;8.556;2023-10-31T04:10:01;11.80;99.90
18898;DHT22;9581;49.484;8.556;2023-10-31T04:12:28;11.70;99.90
18898;DHT22;9581;49.484;8.556;2023-10-31T04:14:55;11.70;99.90
18898;DHT22;9581;49.484;8.556;2023-10-31T04:17:22;11.70;99.90
18898;DHT22;9581;49.484;8.556;2023-10-31T04:19:49;11.80;99.90
18898;DHT22;9581;49.484;8.556;2023-10-31T04:22:17;11.80;99.90
18898;DHT22;9581;49.484;8.556;2023-10-31T04:24:44;11.70;99.90
18898;DHT22;9581;49.484;8.556;2023-10-31T04:27:10;11.70;99.90
18898;DHT22;9581;49.484;8.556;2023-10-31T04:29:37;11.70;99.90
18898;DHT22;9581;49.484;8.556;2023-10-31T04:32:04;11.70;99.90
18898;DHT22;9581;49.484;8.556;2023-10-31T04:34:32;11.70;99.90
18898;DHT22;9581;49.484;8.556;2023-10-31T04:36:58;11.70;99.90
18898;DHT22;9581;49.484;8.556;2023-10-31T04:39:26;11.70;99.90
18898;DHT22;9581;49.484;8.556;2023-10-31T04:41:53;11.60;99.90
18898;DHT22;9581;49.484;8.556;2023-10-31T04:44:20;11.60;99.90
18898;DHT22;9581;49.484;8.556;2023-10-31T04:46:47;11.60;99.90
18898;DHT22;9581;49.484;8.556;2023-10-31T04:49:14;11.70;99.90
18898;DHT22;9581;49.484;8.556;2023-10-31T04:51:41;11.80;99.90
18898;DHT22;9581;49.484;8.556;2023-10-31T04:54:07;11.70;99.90
18898;DHT22;9581;49.484;8.556;2023-10-31T04:56:36;11.80;99.90
18898;DHT22;9581;49.484;8.556;2023-10-31T04:59:03;11.70;99.90
18898;DHT22;9581;49.484;8.556;2023-10-31T05:01:30;11.70;99.90
18898;DHT22;9581;49.484;8.556;2023-10-31T05:03:56;11.60;99.90
18898;DHT22;9581;49.484;8.556;2023-10-31T05:06:23;11.60;99.90
18898;DHT22;9581;49.484;8.556;2023-10-31T05:08:50;11.70;99.90
18898;DHT22;9581;49.484;8.556;2023-10-31T05:11:16;11.80;99.90
18898;DHT22;9581;49.484;8.556;2023-10-31T05:13:45;11.70;99.90
18898;DHT22;9581;49.484;8.556;2023-10-31T05:16:12;11.60;99.90
18898;DHT22;9581;49.484;8.556;2023-10-31T05:18:39;11.70;99.90
18898;DHT22;9581;49.484;8.556;2023-10-31T05:21:05;11.80;99.90
18898;DHT22;9581;49.484;8.556;2023-10-31T05:23:32;11.80;99.90
18898;DHT22;9581;49.484;8.556;2023-10-31T05:25:59;11.80;99.90
18898;DHT22;9581;49.484;8.556;2023-10-31T05:28:26;11.80;99.90
18898;DHT22;9581;49.484;8.556;2023-10-31T05:30:54;11.70;99.90
18898;DHT22;9581;49.484;8.556;2023-10-31T05:33:21;11.70;99.90
18898;DHT22;9581;49.484;8.556;2023-10-31T05:35:48;11.70;99.90
18898;DHT22;9581;49.484;8.556;2023-10-31T05:38:16;11.70;99.90
18898;DHT22;9581;49.484;8.556;2023-10-31T05:40:43;11.70;99.90
18898;DHT22;9581;49.484;8.556;2023-10-31T05:43:09;11.60;99.90
18898;DHT22;9581;49.484;8.556;2023-10-31T05:45:36;11.60;99.90
18898;DHT22;9581;49.484;8.556;2023-10-31T05:48:05;11.60;99.90
18898;DHT22;9581;49.484;8.556;2023-10-31T05:50:31;11.70;99.90
18898;DHT22;9581;49.484;8.556;2023-10-31T05:52:58;11.50;99.90
18898;DHT22;9581;49.484;8.556;2023-10-31T05:55:25;11.70;99.90
18898;DHT22;9581;49.484;8.556;2023-10-31T05:57:52;11.60;99.90
18898;DHT22;9581;49.484;8.556;2023-10-31T06:00:19;11.60;99.90
18898;DHT22;9581;49.484;8.556;2023-10-31T06:02:45;11.60;99.90
18898;DHT22;9581;49.484;8.556;2023-10-31T06:05:13;11.60;99.90
18898;DHT22;9581;49.484;8.556;2023-10-31T06:07:40;11.60;99.90
18898;DHT22;9581;49.484;8.556;2023-10-31T06:10:08;11.70;99.90
18898;DHT22;9581;49.484;8.556;2023-10-31T06:12:35;11.60;99.90
18898;DHT22;9581;49.484;8.556;2023-10-31T06:15:02;11.60;99.90
18898;DHT22;9581;49.484;8.556;2023-10-31T06:17:29;11.60;99.90
18898;DHT22;9581;49.484;8.556;2023-10-31T06:19:58;11.60;99.90
18898;DHT22;9581;49.484;8.556;2023-10-31T06:22:27;11.60;99.90
18898;DHT22;9581;49.484;8.556;2023-10-31T06:24:53;11.60;99.90
18898;DHT22;9581;49.484;8.556;2023-10-31T06:27:20;11.50;99.90
18898;DHT22;9581;49.484;8.556;2023-10-31T06:29:47;11.60;99.90
18898;DHT22;9581;49.484;8.556;2023-10-31T06:32:14;11.50;99.90
18898;DHT22;9581;49.484;8.556;2023-10-31T06:34:40;11.60;99.90
18898;DHT22;9581;49.484;8.556;2023-10-31T06:37:07;11.60;99.90
18898;DHT22;9581;49.484;8.556;2023-10-31T06:39:35;11.60;99.90
18898;DHT22;9581;49.484;8.556;2023-10-31T06:42:02;11.40;99.90
18898;DHT22;9581;49.484;8.556;2023-10-31T06:44:29;11.50;99.90
18898;DHT22;9581;49.484;8.556;2023-10-31T06:46:56;11.60;99.90
18898;DHT22;9581;49.484;8.556;2023-10-31T06:49:22;11.50;99.90
18898;DHT22;9581;49.484;8.556;2023-10-31T06:51:49;11.50;99.90
18898;DHT22;9581;49.484;8.556;2023-10-31T06:54:16;11.60;99.90
18898;DHT22;9581;49.484;8.556;2023-10-31T06:56:44;11.60;99.90
18898;DHT22;9581;49.484;8.556;2023-10-31T06:59:11;11.50;99.90
18898;DHT22;9581;49.484;8.556;2023-10-31T07:01:38;11.40;99.90
18898;DHT22;9581;49.484;8.556;2023-10-31T07:04:05;11.40;99.90
18898;DHT22;9581;49.484;8.556;2023-10-31T07:06:32;11.60;99.90
18898;DHT22;9581;49.484;8.556;2023-10-31T07:08:58;11.60;99.90
18898;DHT22;9581;49.484;8.556;2023-10-31T07:11:30;11.60;99.90
18898;DHT22;9581;49.484;8.556;2023-10-31T07:14:00;11.80;99.90
18898;DHT22;9581;49.484;8.556;2023-10-31T07:16:27;11.70;99.90
18898;DHT22;9581;49.484;8.556;2023-10-31T07:18:54;11.70;99.90
18898;DHT22;9581;49.484;8.556;2023-10-31T07:21:21;11.80;99.90
18898;DHT22;9581;49.484;8.556;2023-10-31T07:23:47;11.80;99.90
18898;DHT22;9581;49.484;8.556;2023-10-31T07:26:14;11.70;99.90
18898;DHT22;9581;49.484;8.556;2023-10-31T07:28:41;11.70;99.90
18898;DHT22;9581;49.484;8.556;2023-10-31T07:31:10;11.90;99.90
18898;DHT22;9581;49.484;8.556;2023-10-31T07:33:36;11.80;99.90
18898;DHT22;9581;49.484;8.556;2023-10-31T07:36:04;11.90;99.90
18898;DHT22;9581;49.484;8.556;2023-10-31T07:38:31;11.90;99.90
18898;DHT22;9581;49.484;8.556;2023-10-31T07:40:58;11.90;99.90
18898;DHT22;9581;49.484;8.556;2023-10-31T07:43:25;11.70;99.90
18898;DHT22;9581;49.484;8.556;2023-10-31T07:45:52;11.80;99.90
18898;DHT22;9581;49.484;8.556;2023-10-31T07:48:20;11.80;99.90
18898;DHT22;9581;49.484;8.556;2023-10-31T07:50:47;11.90;99.90
18898;DHT22;9581;49.484;8.556;2023-10-31T07:53:14;11.90;99.90
18898;DHT22;9581;49.484;8.556;2023-10-31T07:55:43;12.00;99.90
18898;DHT22;9581;49.484;8.556;2023-10-31T07:58:10;12.00;99.90
18898;DHT22;9581;49.484;8.556;2023-10-31T08:00:36;12.10;99.90
18898;DHT22;9581;49.484;8.556;2023-10-31T08:03:04;12.10;99.90
18898;DHT22;9581;49.484;8.556;2023-10-31T08:05:32;12.00;99.90
18898;DHT22;9581;49.484;8.556;2023-10-31T08:07:59;12.10;99.90
18898;DHT22;9581;49.484;8.556;2023-10-31T08:10:26;11.90;99.90
18898;DHT22;9581;49.484;8.556;2023-10-31T08:12:53;11.80;99.90
18898;DHT22;9581;49.484;8.556;2023-10-31T08:15:19;11.90;99.90
18898;DHT22;9581;49.484;8.556;2023-10-31T08:17:46;11.90;99.90
18898;DHT22;9581;49.484;8.556;2023-10-31T08:20:13;11.80;99.90
18898;DHT22;9581;49.484;8.556;2023-10-31T08:22:41;11.70;99.90
18898;DHT22;9581;49.484;8.556;2023-10-31T08:25:09;11.60;99.90
18898;DHT22;9581;49.484;8.556;2023-10-31T08:27:35;11.80;99.90
18898;DHT22;9581;49.484;8.556;2023-10-31T08:30:03;11.70;99.90
18898;DHT22;9581;49.484;8.556;2023-10-31T08:32:30;11.70;99.90
18898;DHT22;9581;49.484;8.556;2023-10-31T08:34:56;11.80;99.90
18898;DHT22;9581;49.484;8.556;2023-10-31T08:37:23;11.90;99.90
18898;DHT22;9581;49.484;8.556;2023-10-31T08:39:51;11.90;99.90
18898;DHT22;9581;49.484;8.556;2023-10-31T08:42:18;12.00;99.90
18898;DHT22;9581;49.484;8.556;2023-10-31T08:44:45;12.00;99.90
18898;DHT22;9581;49.484;8.556;2023-10-31T08:47:12;12.00;99.90
18898;DHT22;9581;49.484;8.556;2023-10-31T08:49:39;12.20;99.90
18898;DHT22;9581;49.484;8.556;2023-10-31T08:52:06;12.30;99.90
18898;DHT22;9581;49.484;8.556;2023-10-31T08:54:33;12.40;99.90
18898;DHT22;9581;49.484;8.556;2023-10-31T08:57:01;12.30;99.90
18898;DHT22;9581;49.484;8.556;2023-10-31T08:59:28;12.40;99.90
18898;DHT22;9581;49.484;8.556;2023-10-31T09:01:55;12.40;99.90
18898;DHT22;9581;49.484;8.556;2023-10-31T09:04:21;12.20;99.90
18898;DHT22;9581;49.484;8.556;2023-10-31T09:06:48;12.20;99.90
18898;DHT22;9581;49.484;8.556;2023-10-31T09:09:15;12.40;99.90
18898;DHT22;9581;49.484;8.556;2023-10-31T09:11:42;12.50;99.90
18898;DHT22;9581;49.484;8.556;2023-10-31T09:14:10;12.30;99.90
18898;DHT22;9581;49.484;8.556;2023-10-31T09:16:37;12.30;99.90
18898;DHT22;9581;49.484;8.556;2023-10-31T09:19:04;12.50;99.90
18898;DHT22;9581;49.484;8.556;2023-10-31T09:21:30;12.60;99.90
18898;DHT22;9581;49.484;8.556;2023-10-31T09:23:57;12.80;99.90
18898;DHT22;9581;49.484;8.556;2023-10-31T09:26:24;12.90;99.90
18898;DHT22;9581;49.484;8.556;2023-10-31T09:28:50;13.00;99.90
18898;DHT22;9581;49.484;8.556;2023-10-31T09:31:19;12.90;99.90
18898;DHT22;9581;49.484;8.556;2023-10-31T09:33:46;13.40;99.90
18898;DHT22;9581;49.484;8.556;2023-10-31T09:36:13;16.00;99.90
18898;DHT22;9581;49.484;8.556;2023-10-31T09:38:40;16.90;99.90
18898;DHT22;9581;49.484;8.556;2023-10-31T09:41:07;15.90;99.90
18898;DHT22;9581;49.484;8.556;2023-10-31T09:43:34;17.50;99.90
18898;DHT22;9581;49.484;8.556;2023-10-31T09:46:02;20.30;99.90
18898;DHT22;9581;49.484;8.556;2023-10-31T09:48:31;20.90;99.90
18898;DHT22;9581;49.484;8.556;2023-10-31T09:50:58;22.30;99.90
18898;DHT22;9581;49.484;8.556;2023-10-31T09:53:25;24.70;99.90
18898;DHT22;9581;49.484;8.556;2023-10-31T09:55:53;25.60;99.90
18898;DHT22;9581;49.484;8.556;2023-10-31T09:58:21;25.60;99.90
18898;DHT22;9581;49.484;8.556;2023-10-31T10:00:47;24.80;99.90
18898;DHT22;9581;49.484;8.556;2023-10-31T10:03:15;23.90;99.90
18898;DHT22;9581;49.484;8.556;2023-10-31T10:05:44;22.10;99.90
18898;DHT22;9581;49.484;8.556;2023-10-31T10:08:12;20.60;99.90
18898;DHT22;9581;49.484;8.556;2023-10-31T10:10:38;18.50;99.90
18898;DHT22;9581;49.484;8.556;2023-10-31T10:13:05;18.00;99.90
18898;DHT22;9581;49.484;8.556;2023-10-31T10:15:43;17.30;99.90
18898;DHT22;9581;49.484;8.556;2023-10-31T10:18:10;17.00;99.90
18898;DHT22;9581;49.484;8.556;2023-10-31T10:20:55;16.60;99.90
18898;DHT22;9581;49.484;8.556;2023-10-31T10:23:23;16.70;99.90
18898;DHT22;9581;49.484;8.556;2023-10-31T10:25:50;16.20;99.90
18898;DHT22;9581;49.484;8.556;2023-10-31T10:28:17;16.30;99.90
18898;DHT22;9581;49.484;8.556;2023-10-31T10:30:45;16.30;99.90
18898;DHT22;9581;49.484;8.556;2023-10-31T10:33:12;16.40;99.90
18898;DHT22;9581;49.484;8.556;2023-10-31T10:35:39;16.10;99.90
18898;DHT22;9581;49.484;8.556;2023-10-31T10:38:10;16.00;99.90
18898;DHT22;9581;49.484;8.556;2023-10-31T10:40:40;16.00;99.90
18898;DHT22;9581;49.484;8.556;2023-10-31T10:43:12;15.70;99.90
18898;DHT22;9581;49.484;8.556;2023-10-31T10:45:42;15.60;99.90
18898;DHT22;9581;49.484;8.556;2023-10-31T10:48:11;15.60;99.90
18898;DHT22;9581;49.484;8.556;2023-10-31T10:50:42;15.80;99.90
18898;DHT22;9581;49.484;8.556;2023-10-31T10:53:16;16.00;99.90
18898;DHT22;9581;49.484;8.556;2023-10-31T10:55:51;15.70;99.90
18898;DHT22;9581;49.484;8.556;2023-10-31T10:58:23;15.80;99.90
18898;DHT22;9581;49.484;8.556;2023-10-31T11:00:55;15.90;99.90
18898;DHT22;9581;49.484;8.556;2023-10-31T11:03:24;15.80;99.90
18898;DHT22;9581;49.484;8.556;2023-10-31T11:05:51;15.80;99.90
18898;DHT22;9581;49.484;8.556;2023-10-31T11:08:20;16.30;99.90
18898;DHT22;9581;49.484;8.556;2023-10-31T11:10:48;17.00;99.90
18898;DHT22;9581;49.484;8.556;2023-10-31T11:13:15;16.70;99.90
18898;DHT22;9581;49.484;8.556;2023-10-31T11:15:42;16.70;99.90
18898;DHT22;9581;49.484;8.556;2023-10-31T11:18:10;16.70;99.90
18898;DHT22;9581;49.484;8.556;2023-10-31T11:20:37;16.60;99.90
18898;DHT22;9581;49.484;8.556;2023-10-31T11:23:05;16.10;99.90
18898;DHT22;9581;49.484;8.556;2023-10-31T11:25:33;15.70;99.90
18898;DHT22;9581;49.484;8.556;2023-10-31T11:28:15;15.70;99.90
18898;DHT22;9581;49.484;8.556;2023-10-31T11:30:43;15.60;99.90
18898;DHT22;9581;49.484;8.556;2023-10-31T11:33:12;15.50;99.90
18898;DHT22;9581;49.484;8.556;2023-10-31T11:35:40;15.40;99.90
18898;DHT22;9581;49.484;8.556;2023-10-31T11:38:08;15.80;99.90
18898;DHT22;9581;49.484;8.556;2023-10-31T11:40:57;15.80;99.90
18898;DHT22;9581;49.484;8.556;2023-10-31T11:43:24;15.90;99.90
18898;DHT22;9581;49.484;8.556;2023-10-31T11:45:52;15.90;99.90
18898;DHT22;9581;49.484;8.556;2023-10-31T11:48:46;16.10;99.90
18898;DHT22;9581;49.484;8.556;2023-10-31T11:51:14;16.00;99.90
18898;DHT22;9581;49.484;8.556;2023-10-31T11:53:40;15.70;99.90
18898;DHT22;9581;49.484;8.556;2023-10-31T11:56:11;15.70;99.90
18898;DHT22;9581;49.484;8.556;2023-10-31T11:58:38;15.90;99.90
18898;DHT22;9581;49.484;8.556;2023-10-31T12:01:06;16.10;99.90
18898;DHT22;9581;49.484;8.556;2023-10-31T12:03:37;16.20;99.90
18898;DHT22;9581;49.484;8.556;2023-10-31T12:06:05;16.10;99.90
18898;DHT22;9581;49.484;8.556;2023-10-31T12:08:33;16.00;99.90
18898;DHT22;9581;49.484;8.556;2023-10-31T12:11:05;16.10;99.90
18898;DHT22;9581;49.484;8.556;2023-10-31T12:13:35;16.20;99.90
18898;DHT22;9581;49.484;8.556;2023-10-31T12:16:02;16.20;99.90
18898;DHT22;9581;49.484;8.556;2023-10-31T12:18:29;16.30;99.90
18898;DHT22;9581;49.484;8.556;2023-10-31T12:20:56;16.20;99.90
18898;DHT22;9581;49.484;8.556;2023-10-31T12:23:23;16.30;99.90
18898;DHT22;9581;49.484;8.556;2023-10-31T12:25:50;15.90;99.90
18898;DHT22;9581;49.484;8.556;2023-10-31T12:28:17;15.80;99.90
18898;DHT22;9581;49.484;8.556;2023-10-31T12:30:46;16.10;99.90
18898;DHT22;9581;49.484;8.556;2023-10-31T12:33:13;16.10;99.90
18898;DHT22;9581;49.484;8.556;2023-10-31T12:35:40;15.80;99.90
18898;DHT22;9581;49.484;8.556;2023-10-31T12:38:10;15.70;99.90
18898;DHT22;9581;49.484;8.556;2023-10-31T12:40:38;15.70;99.90
18898;DHT22;9581;49.484;8.556;2023-10-31T12:43:06;15.90;99.90
18898;DHT22;9581;49.484;8.556;2023-10-31T12:45:33;15.90;99.90
18898;DHT22;9581;49.484;8.556;2023-10-31T12:48:02;16.20;99.90
18898;DHT22;9581;49.484;8.556;2023-10-31T12:50:29;16.40;99.90
18898;DHT22;9581;49.484;8.556;2023-10-31T12:52:56;16.40;99.90
18898;DHT22;9581;49.484;8.556;2023-10-31T12:55:25;16.40;99.90
18898;DHT22;9581;49.484;8.556;2023-10-31T12:57:53;16.30;99.90
18898;DHT22;9581;49.484;8.556;2023-10-31T13:00:21;16.40;99.90
18898;DHT22;9581;49.484;8.556;2023-10-31T13:02:51;16.10;99.90
18898;DHT22;9581;49.484;8.556;2023-10-31T13:05:25;16.10;99.90
18898;DHT22;9581;49.484;8.556;2023-10-31T13:07:53;15.90;99.90
18898;DHT22;9581;49.484;8.556;2023-10-31T13:10:22;15.80;99.90
18898;DHT22;9581;49.484;8.556;2023-10-31T13:12:50;15.70;99.90
18898;DHT22;9581;49.484;8.556;2023-10-31T13:15:17;15.60;99.90
18898;DHT22;9581;49.484;8.556;2023-10-31T13:17:45;15.40;99.90
18898;DHT22;9581;49.484;8.556;2023-10-31T13:20:13;15.40;99.90
18898;DHT22;9581;49.484;8.556;2023-10-31T13:22:42;15.30;99.90
18898;DHT22;9581;49.484;8.556;2023-10-31T13:25:10;15.30;99.90
18898;DHT22;9581;49.484;8.556;2023-10-31T13:27:39;15.50;99.90
18898;DHT22;9581;49.484;8.556;2023-10-31T13:30:07;15.60;99.90
18898;DHT22;9581;49.484;8.556;2023-10-31T13:32:34;15.40;99.90
18898;DHT22;9581;49.484;8.556;2023-10-31T13:35:01;15.20;99.90
18898;DHT22;9581;49.484;8.556;2023-10-31T13:37:28;15.40;99.90
18898;DHT22;9581;49.484;8.556;2023-10-31T13:39:56;15.50;99.90
18898;DHT22;9581;49.484;8.556;2023-10-31T13:42:23;15.50;99.90
18898;DHT22;9581;49.484;8.556;2023-10-31T13:44:51;15.40;99.90
18898;DHT22;9581;49.484;8.556;2023-10-31T13:47:18;15.30;99.90
18898;DHT22;9581;49.484;8.556;2023-10-31T13:49:44;15.50;99.90
18898;DHT22;9581;49.484;8.556;2023-10-31T13:52:11;15.30;99.90
18898;DHT22;9581;49.484;8.556;2023-10-31T13:54:38;15.30;99.90
18898;DHT22;9581;49.484;8.556;2023-10-31T13:57:06;15.30;99.90
18898;DHT22;9581;49.484;8.556;2023-10-31T13:59:33;15.10;99.90
18898;DHT22;9581;49.484;8.556;2023-10-31T14:02:00;15.10;99.90
18898;DHT22;9581;49.484;8.556;2023-10-31T14:04:27;15.00;99.90
18898;DHT22;9581;49.484;8.556;2023-10-31T14:06:54;15.10;99.90
18898;DHT22;9581;49.484;8.556;2023-10-31T14:09:21;15.10;99.90
18898;DHT22;9581;49.484;8.556;2023-10-31T14:11:47;15.10;99.90
18898;DHT22;9581;49.484;8.556;2023-10-31T14:14:16;15.20;99.90
18898;DHT22;9581;49.484;8.556;2023-10-31T14:16:43;15.10;99.90
18898;DHT22;9581;49.484;8.556;2023-10-31T14:19:10;15.10;99.90
18898;DHT22;9581;49.484;8.556;2023-10-31T14:21:37;15.20;99.90
18898;DHT22;9581;49.484;8.556;2023-10-31T14:24:04;15.30;99.90
18898;DHT22;9581;49.484;8.556;2023-10-31T14:26:34;15.20;99.90
18898;DHT22;9581;49.484;8.556;2023-10-31T14:29:01;15.20;99.90
18898;DHT22;9581;49.484;8.556;2023-10-31T14:31:30;15.00;99.90
18898;DHT22;9581;49.484;8.556;2023-10-31T14:33:56;15.00;99.90
18898;DHT22;9581;49.484;8.556;2023-10-31T14:36:24;15.00;99.90
18898;DHT22;9581;49.484;8.556;2023-10-31T14:38:51;15.10;99.90
18898;DHT22;9581;49.484;8.556;2023-10-31T14:41:18;15.00;99.90
18898;DHT22;9581;49.484;8.556;2023-10-31T14:43:44;15.00;99.90
18898;DHT22;9581;49.484;8.556;2023-10-31T14:46:11;15.00;99.90
18898;DHT22;9581;49.484;8.556;2023-10-31T14:48:39;15.00;99.90
18898;DHT22;9581;49.484;8.556;2023-10-31T14:51:06;15.00;99.90
18898;DHT22;9581;49.484;8.556;2023-10-31T14:53:33;15.00;99.90
18898;DHT22;9581;49.484;8.556;2023-10-31T14:56:00;14.80;99.90
18898;DHT22;9581;49.484;8.556;2023-10-31T14:58:27;14.70;99.90
18898;DHT22;9581;49.484;8.556;2023-10-31T15:00:53;14.80;99.90
18898;DHT22;9581;49.484;8.556;2023-10-31T15:03:20;14.70;99.90
18898;DHT22;9581;49.484;8.556;2023-10-31T15:05:48;14.60;99.90
18898;DHT22;9581;49.484;8.556;2023-10-31T15:08:15;14.60;99.90
18898;DHT22;9581;49.484;8.556;2023-10-31T15:10:42;14.50;99.90
18898;DHT22;9581;49.484;8.556;2023-10-31T15:13:09;14.50;99.90
18898;DHT22;9581;49.484;8.556;2023-10-31T15:15:36;14.40;99.90
18898;DHT22;9581;49.484;8.556;2023-10-31T15:18:03;14.30;99.90
18898;DHT22;9581;49.484;8.556;2023-10-31T15:20:29;14.30;99.90
18898;DHT22;9581;49.484;8.556;2023-10-31T15:22:58;14.20;99.90
18898;DHT22;9581;49.484;8.556;2023-10-31T15:25:24;14.10;99.90
18898;DHT22;9581;49.484;8.556;2023-10-31T15:27:51;14.20;99.90
18898;DHT22;9581;49.484;8.556;2023-10-31T15:30:18;14.00;99.90
18898;DHT22;9581;49.484;8.556;2023-10-31T15:32:45;14.00;99.90
18898;DHT22;9581;49.484;8.556;2023-10-31T15:35:11;13.90;99.90
18898;DHT22;9581;49.484;8.556;2023-10-31T15:37:38;13.80;99.90
18898;DHT22;9581;49.484;8.556;2023-10-31T15:40:08;13.80;99.90
18898;DHT22;9581;49.484;8.556;2023-10-31T15:42:35;13.70;99.90
18898;DHT22;9581;49.484;8.556;2023-10-31T15:45:02;13.70;99.90
18898;DHT22;9581;49.484;8.556;2023-10-31T15:47:30;13.60;99.90